sensor_id;sensor_type;location;lat;lon;timestamp;pressure;altitude;pressure_sealevel;temperature;humidity
63306;BME280;50735;52.060;1.248;2023-05-20T00:00:06;102502.42;;;8.60;55.64
63306;BME280;50735;52.060;1.248;2023-05-20T00:02:38;102499.66;;;8.98;54.90
63306;BME280;50735;52.060;1.248;2023-05-20T00:05:10;102501.20;;;8.99;54.58
63306;BME280;50735;52.060;1.248;2023-05-20T00:07:42;102499.85;;;8.77;55.11
63306;BME280;50735;52.060;1.248;2023-05-20T00:10:15;102498.36;;;8.81;54.79
63306;BME280;50735;52.060;1.248;2023-05-20T00:12:46;102497.36;;;8.88;55.73
63306;BME280;50735;52.060;1.248;2023-05-20T00:15:18;102496.56;;;8.72;55.86
63306;BME280;50735;52.060;1.248;2023-05-20T00:17:50;102492.60;;;8.96;55.79
63306;BME280;50735;52.060;1.248;2023-05-20T00:20:22;102490.96;;;8.55;55.66
63306;BME280;50735;52.060;1.248;2023-05-20T00:22:54;102489.72;;;8.71;55.83
63306;BME280;50735;52.060;1.248;2023-05-20T00:25:26;102487.06;;;8.34;56.88
63306;BME280;50735;52.060;1.248;2023-05-20T00:27:58;102486.52;;;8.73;56.22
63306;BME280;50735;52.060;1.248;2023-05-20T00:30:30;102485.85;;;8.44;56.67
63306;BME280;50735;52.060;1.248;2023-05-20T00:33:02;102486.72;;;8.63;56.35
63306;BME280;50735;52.060;1.248;2023-05-20T00:35:34;102485.62;;;8.71;55.98
63306;BME280;50735;52.060;1.248;2023-05-20T00:38:06;102482.63;;;8.91;55.56
63306;BME280;50735;52.060;1.248;2023-05-20T00:40:37;102481.01;;;8.95;55.40
63306;BME280;50735;52.060;1.248;2023-05-20T00:43:09;102479.74;;;8.97;55.79
63306;BME280;50735;52.060;1.248;2023-05-20T00:45:41;102479.82;;;8.84;56.09
63306;BME280;50735;52.060;1.248;2023-05-20T00:48:13;102482.95;;;8.51;56.29
63306;BME280;50735;52.060;1.248;2023-05-20T00:50:46;102479.11;;;8.91;55.41
63306;BME280;50735;52.060;1.248;2023-05-20T00:53:19;102478.10;;;9.13;55.53
63306;BME280;50735;52.060;1.248;2023-05-20T00:55:51;102474.32;;;8.92;54.45
63306;BME280;50735;52.060;1.248;2023-05-20T00:58:23;102470.70;;;9.46;54.03
63306;BME280;50735;52.060;1.248;2023-05-20T01:00:55;102474.14;;;9.40;53.97
63306;BME280;50735;52.060;1.248;2023-05-20T01:03:27;102471.70;;;9.21;55.13
63306;BME280;50735;52.060;1.248;2023-05-20T01:06:00;102469.30;;;9.18;54.64
63306;BME280;50735;52.060;1.248;2023-05-20T01:08:31;102472.37;;;9.19;54.99
63306;BME280;50735;52.060;1.248;2023-05-20T01:11:07;102470.03;;;9.34;53.93
63306;BME280;50735;52.060;1.248;2023-05-20T01:13:42;102466.25;;;9.42;53.76
63306;BME280;50735;52.060;1.248;2023-05-20T01:16:17;102461.74;;;9.35;54.14
63306;BME280;50735;52.060;1.248;2023-05-20T01:18:50;102461.79;;;9.21;54.47
63306;BME280;50735;52.060;1.248;2023-05-20T01:21:26;102456.76;;;8.53;55.02
63306;BME280;50735;52.060;1.248;2023-05-20T01:23:58;102454.32;;;8.93;54.53
63306;BME280;50735;52.060;1.248;2023-05-20T01:26:30;102453.99;;;8.99;54.70
63306;BME280;50735;52.060;1.248;2023-05-20T01:29:02;102449.91;;;8.44;55.83
63306;BME280;50735;52.060;1.248;2023-05-20T01:31:36;102446.76;;;8.38;56.43
63306;BME280;50735;52.060;1.248;2023-05-20T01:34:09;102442.17;;;8.49;55.67
63306;BME280;50735;52.060;1.248;2023-05-20T01:36:43;102437.42;;;8.15;56.77
63306;BME280;50735;52.060;1.248;2023-05-20T01:39:17;102433.50;;;8.00;57.23
63306;BME280;50735;52.060;1.248;2023-05-20T01:41:49;102433.39;;;7.94;57.66
63306;BME280;50735;52.060;1.248;2023-05-20T01:44:21;102430.78;;;8.23;56.54
63306;BME280;50735;52.060;1.248;2023-05-20T01:46:54;102436.68;;;8.42;56.25
63306;BME280;50735;52.060;1.248;2023-05-20T01:49:25;102439.71;;;8.53;55.72
63306;BME280;50735;52.060;1.248;2023-05-20T01:51:58;102442.80;;;8.86;55.78
63306;BME280;50735;52.060;1.248;2023-05-20T01:54:30;102439.84;;;8.59;56.14
63306;BME280;50735;52.060;1.248;2023-05-20T01:57:02;102439.78;;;8.39;56.06
63306;BME280;50735;52.060;1.248;2023-05-20T01:59:34;102435.20;;;8.09;57.09
63306;BME280;50735;52.060;1.248;2023-05-20T02:02:06;102435.75;;;7.96;56.66
63306;BME280;50735;52.060;1.248;2023-05-20T02:04:38;102433.71;;;8.13;56.89
63306;BME280;50735;52.060;1.248;2023-05-20T02:07:10;102435.98;;;8.23;56.63
63306;BME280;50735;52.060;1.248;2023-05-20T02:09:42;102434.80;;;8.05;57.09
63306;BME280;50735;52.060;1.248;2023-05-20T02:12:14;102433.47;;;8.18;56.37
63306;BME280;50735;52.060;1.248;2023-05-20T02:14:46;102434.65;;;7.93;57.15
63306;BME280;50735;52.060;1.248;2023-05-20T02:17:18;102435.51;;;8.23;57.56
63306;BME280;50735;52.060;1.248;2023-05-20T02:19:50;102432.07;;;7.95;57.27
63306;BME280;50735;52.060;1.248;2023-05-20T02:22:22;102429.88;;;8.18;56.31
63306;BME280;50735;52.060;1.248;2023-05-20T02:24:53;102427.11;;;8.05;56.96
63306;BME280;50735;52.060;1.248;2023-05-20T02:27:25;102429.48;;;7.95;57.18
63306;BME280;50735;52.060;1.248;2023-05-20T02:29:57;102423.06;;;8.33;56.52
63306;BME280;50735;52.060;1.248;2023-05-20T02:32:29;102421.08;;;8.64;56.04
63306;BME280;50735;52.060;1.248;2023-05-20T02:35:00;102414.48;;;7.84;57.84
63306;BME280;50735;52.060;1.248;2023-05-20T02:37:32;102412.20;;;7.94;58.16
63306;BME280;50735;52.060;1.248;2023-05-20T02:40:05;102406.26;;;7.89;57.50
63306;BME280;50735;52.060;1.248;2023-05-20T02:42:37;102404.54;;;8.17;57.45
63306;BME280;50735;52.060;1.248;2023-05-20T02:45:09;102404.25;;;8.60;56.33
63306;BME280;50735;52.060;1.248;2023-05-20T02:47:40;102407.38;;;8.32;55.93
63306;BME280;50735;52.060;1.248;2023-05-20T02:50:12;102407.39;;;8.40;56.75
63306;BME280;50735;52.060;1.248;2023-05-20T02:52:44;102407.09;;;8.00;57.15
63306;BME280;50735;52.060;1.248;2023-05-20T02:55:16;102402.03;;;8.01;56.97
63306;BME280;50735;52.060;1.248;2023-05-20T02:57:48;102406.98;;;7.78;58.20
63306;BME280;50735;52.060;1.248;2023-05-20T03:00:20;102404.94;;;7.83;57.97
63306;BME280;50735;52.060;1.248;2023-05-20T03:02:52;102411.40;;;7.43;58.64
63306;BME280;50735;52.060;1.248;2023-05-20T03:05:23;102406.22;;;7.69;58.55
63306;BME280;50735;52.060;1.248;2023-05-20T03:07:55;102406.22;;;7.83;58.27
63306;BME280;50735;52.060;1.248;2023-05-20T03:10:27;102402.52;;;7.72;57.74
63306;BME280;50735;52.060;1.248;2023-05-20T03:12:59;102404.76;;;8.07;57.75
63306;BME280;50735;52.060;1.248;2023-05-20T03:15:30;102402.32;;;8.07;57.59
63306;BME280;50735;52.060;1.248;2023-05-20T03:18:02;102400.40;;;8.11;57.02
63306;BME280;50735;52.060;1.248;2023-05-20T03:20:34;102397.77;;;7.85;57.88
63306;BME280;50735;52.060;1.248;2023-05-20T03:23:06;102394.67;;;8.05;58.37
63306;BME280;50735;52.060;1.248;2023-05-20T03:25:39;102389.45;;;7.88;58.73
63306;BME280;50735;52.060;1.248;2023-05-20T03:28:11;102387.61;;;7.98;58.27
63306;BME280;50735;52.060;1.248;2023-05-20T03:30:42;102387.68;;;7.93;57.61
63306;BME280;50735;52.060;1.248;2023-05-20T03:33:14;102391.90;;;7.88;58.18
63306;BME280;50735;52.060;1.248;2023-05-20T03:35:46;102395.47;;;7.85;58.18
63306;BME280;50735;52.060;1.248;2023-05-20T03:38:17;102393.49;;;7.59;59.49
63306;BME280;50735;52.060;1.248;2023-05-20T03:40:49;102390.94;;;7.48;59.15
63306;BME280;50735;52.060;1.248;2023-05-20T03:43:21;102387.66;;;7.58;59.48
63306;BME280;50735;52.060;1.248;2023-05-20T03:45:53;102380.85;;;7.22;60.62
63306;BME280;50735;52.060;1.248;2023-05-20T03:48:26;102383.96;;;7.21;60.32
63306;BME280;50735;52.060;1.248;2023-05-20T03:50:57;102384.65;;;7.14;60.74
63306;BME280;50735;52.060;1.248;2023-05-20T03:53:29;102386.29;;;7.51;59.62
63306;BME280;50735;52.060;1.248;2023-05-20T03:56:01;102384.95;;;7.74;59.10
63306;BME280;50735;52.060;1.248;2023-05-20T03:58:33;102382.94;;;8.09;58.68
63306;BME280;50735;52.060;1.248;2023-05-20T04:01:05;102382.62;;;7.80;59.11
63306;BME280;50735;52.060;1.248;2023-05-20T04:03:37;102382.56;;;8.00;58.48
63306;BME280;50735;52.060;1.248;2023-05-20T04:06:08;102384.01;;;7.73;58.62
63306;BME280;50735;52.060;1.248;2023-05-20T04:08:40;102383.18;;;8.22;58.16
63306;BME280;50735;52.060;1.248;2023-05-20T04:11:12;102378.56;;;8.12;58.38
63306;BME280;50735;52.060;1.248;2023-05-20T04:13:44;102378.96;;;8.10;58.72
63306;BME280;50735;52.060;1.248;2023-05-20T04:16:16;102381.51;;;7.83;58.11
63306;BME280;50735;52.060;1.248;2023-05-20T04:18:48;102381.30;;;8.05;58.54
63306;BME280;50735;52.060;1.248;2023-05-20T04:21:19;102380.78;;;8.37;58.02
63306;BME280;50735;52.060;1.248;2023-05-20T04:23:51;102380.67;;;8.32;57.90
63306;BME280;50735;52.060;1.248;2023-05-20T04:26:23;102385.61;;;8.48;57.63
63306;BME280;50735;52.060;1.248;2023-05-20T04:28:55;102385.54;;;8.32;58.33
63306;BME280;50735;52.060;1.248;2023-05-20T04:31:27;102385.94;;;8.21;58.11
63306;BME280;50735;52.060;1.248;2023-05-20T04:33:59;102380.55;;;7.90;58.92
63306;BME280;50735;52.060;1.248;2023-05-20T04:36:31;102379.71;;;7.88;58.71
63306;BME280;50735;52.060;1.248;2023-05-20T04:39:03;102381.61;;;7.94;58.83
63306;BME280;50735;52.060;1.248;2023-05-20T04:41:35;102383.18;;;8.04;58.35
63306;BME280;50735;52.060;1.248;2023-05-20T04:44:07;102386.25;;;8.26;57.95
63306;BME280;50735;52.060;1.248;2023-05-20T04:46:39;102385.61;;;8.66;57.15
63306;BME280;50735;52.060;1.248;2023-05-20T04:49:11;102386.00;;;8.36;57.27
63306;BME280;50735;52.060;1.248;2023-05-20T04:51:43;102385.70;;;8.73;56.69
63306;BME280;50735;52.060;1.248;2023-05-20T04:54:15;102383.25;;;8.68;56.94
63306;BME280;50735;52.060;1.248;2023-05-20T04:56:47;102380.61;;;8.69;56.66
63306;BME280;50735;52.060;1.248;2023-05-20T04:59:18;102382.72;;;8.63;57.69
63306;BME280;50735;52.060;1.248;2023-05-20T05:01:50;102383.37;;;8.37;58.14
63306;BME280;50735;52.060;1.248;2023-05-20T05:04:22;102388.43;;;8.51;57.79
63306;BME280;50735;52.060;1.248;2023-05-20T05:06:54;102387.43;;;8.69;57.61
63306;BME280;50735;52.060;1.248;2023-05-20T05:09:26;102381.77;;;8.55;58.30
63306;BME280;50735;52.060;1.248;2023-05-20T05:11:58;102383.84;;;8.57;58.46
63306;BME280;50735;52.060;1.248;2023-05-20T05:14:30;102382.96;;;8.43;59.24
63306;BME280;50735;52.060;1.248;2023-05-20T05:17:02;102382.87;;;8.04;59.55
63306;BME280;50735;52.060;1.248;2023-05-20T05:19:34;102385.59;;;8.36;59.08
63306;BME280;50735;52.060;1.248;2023-05-20T05:22:06;102384.93;;;8.73;59.33
63306;BME280;50735;52.060;1.248;2023-05-20T05:24:37;102381.49;;;8.15;59.96
63306;BME280;50735;52.060;1.248;2023-05-20T05:27:10;102379.11;;;7.71;61.14
63306;BME280;50735;52.060;1.248;2023-05-20T05:29:41;102380.53;;;8.22;60.56
63306;BME280;50735;52.060;1.248;2023-05-20T05:32:13;102378.84;;;8.57;60.15
63306;BME280;50735;52.060;1.248;2023-05-20T05:34:44;102379.60;;;7.77;61.64
63306;BME280;50735;52.060;1.248;2023-05-20T05:37:16;102380.27;;;8.16;61.23
63306;BME280;50735;52.060;1.248;2023-05-20T05:39:48;102379.78;;;7.80;62.07
63306;BME280;50735;52.060;1.248;2023-05-20T05:42:19;102379.01;;;8.23;60.99
63306;BME280;50735;52.060;1.248;2023-05-20T05:44:52;102380.78;;;8.17;61.45
63306;BME280;50735;52.060;1.248;2023-05-20T05:47:24;102379.01;;;8.16;61.88
63306;BME280;50735;52.060;1.248;2023-05-20T05:49:56;102381.66;;;8.49;61.18
63306;BME280;50735;52.060;1.248;2023-05-20T05:52:27;102379.33;;;8.95;60.24
63306;BME280;50735;52.060;1.248;2023-05-20T05:54:59;102378.55;;;8.53;61.05
63306;BME280;50735;52.060;1.248;2023-05-20T05:57:31;102375.97;;;8.87;60.29
63306;BME280;50735;52.060;1.248;2023-05-20T06:00:04;102379.22;;;8.74;61.48
63306;BME280;50735;52.060;1.248;2023-05-20T06:02:36;102380.64;;;9.05;60.76
63306;BME280;50735;52.060;1.248;2023-05-20T06:05:09;102378.68;;;8.83;61.54
63306;BME280;50735;52.060;1.248;2023-05-20T06:07:41;102377.95;;;8.85;61.16
63306;BME280;50735;52.060;1.248;2023-05-20T06:10:12;102379.79;;;8.98;61.29
63306;BME280;50735;52.060;1.248;2023-05-20T06:12:44;102381.93;;;9.31;60.27
63306;BME280;50735;52.060;1.248;2023-05-20T06:15:16;102380.72;;;9.34;61.13
63306;BME280;50735;52.060;1.248;2023-05-20T06:17:48;102378.24;;;9.03;61.32
63306;BME280;50735;52.060;1.248;2023-05-20T06:20:20;102375.19;;;8.96;61.24
63306;BME280;50735;52.060;1.248;2023-05-20T06:22:51;102372.54;;;9.06;62.33
63306;BME280;50735;52.060;1.248;2023-05-20T06:25:23;102370.93;;;9.65;61.35
63306;BME280;50735;52.060;1.248;2023-05-20T06:27:55;102368.34;;;9.51;60.98
63306;BME280;50735;52.060;1.248;2023-05-20T06:30:27;102370.74;;;9.77;60.87
63306;BME280;50735;52.060;1.248;2023-05-20T06:32:58;102370.65;;;9.92;60.02
63306;BME280;50735;52.060;1.248;2023-05-20T06:35:30;102370.73;;;9.84;59.68
63306;BME280;50735;52.060;1.248;2023-05-20T06:38:02;102372.44;;;9.86;60.62
63306;BME280;50735;52.060;1.248;2023-05-20T06:40:34;102370.00;;;9.73;59.91
63306;BME280;50735;52.060;1.248;2023-05-20T06:43:05;102366.01;;;9.67;60.19
63306;BME280;50735;52.060;1.248;2023-05-20T06:45:37;102367.42;;;9.68;60.11
63306;BME280;50735;52.060;1.248;2023-05-20T06:48:09;102368.58;;;9.66;60.29
63306;BME280;50735;52.060;1.248;2023-05-20T06:50:43;102367.13;;;9.81;60.45
63306;BME280;50735;52.060;1.248;2023-05-20T06:53:15;102368.14;;;9.85;59.90
63306;BME280;50735;52.060;1.248;2023-05-20T06:55:47;102359.13;;;9.99;59.36
63306;BME280;50735;52.060;1.248;2023-05-20T06:58:18;102366.29;;;10.33;57.58
63306;BME280;50735;52.060;1.248;2023-05-20T07:00:50;102362.45;;;10.25;57.04
63306;BME280;50735;52.060;1.248;2023-05-20T07:03:22;102362.48;;;10.62;56.64
63306;BME280;50735;52.060;1.248;2023-05-20T07:05:54;102356.02;;;10.11;57.42
63306;BME280;50735;52.060;1.248;2023-05-20T07:08:26;102353.57;;;10.22;55.99
63306;BME280;50735;52.060;1.248;2023-05-20T07:10:58;102349.55;;;10.51;55.95
63306;BME280;50735;52.060;1.248;2023-05-20T07:13:29;102349.88;;;10.15;56.21
63306;BME280;50735;52.060;1.248;2023-05-20T07:16:02;102345.68;;;10.81;54.75
63306;BME280;50735;52.060;1.248;2023-05-20T07:18:33;102346.75;;;10.67;54.97
63306;BME280;50735;52.060;1.248;2023-05-20T07:21:05;102345.05;;;10.46;54.90
63306;BME280;50735;52.060;1.248;2023-05-20T07:23:37;102347.70;;;11.32;53.17
63306;BME280;50735;52.060;1.248;2023-05-20T07:26:09;102349.75;;;10.82;54.32
63306;BME280;50735;52.060;1.248;2023-05-20T07:28:41;102350.26;;;11.30;53.20
63306;BME280;50735;52.060;1.248;2023-05-20T07:31:13;102354.34;;;11.44;52.44
63306;BME280;50735;52.060;1.248;2023-05-20T07:33:45;102348.23;;;12.19;53.73
63306;BME280;50735;52.060;1.248;2023-05-20T07:36:17;102352.17;;;11.94;51.84
63306;BME280;50735;52.060;1.248;2023-05-20T07:38:49;102350.37;;;11.76;52.21
63306;BME280;50735;52.060;1.248;2023-05-20T07:41:21;102351.44;;;11.49;53.01
63306;BME280;50735;52.060;1.248;2023-05-20T07:43:53;102348.13;;;11.42;53.56
63306;BME280;50735;52.060;1.248;2023-05-20T07:46:24;102347.69;;;11.22;52.92
63306;BME280;50735;52.060;1.248;2023-05-20T07:48:56;102352.54;;;12.06;52.46
63306;BME280;50735;52.060;1.248;2023-05-20T07:51:28;102347.21;;;11.76;52.58
63306;BME280;50735;52.060;1.248;2023-05-20T07:54:00;102347.49;;;11.92;52.38
63306;BME280;50735;52.060;1.248;2023-05-20T07:56:31;102348.09;;;12.19;52.01
63306;BME280;50735;52.060;1.248;2023-05-20T07:59:03;102343.16;;;12.24;51.83
63306;BME280;50735;52.060;1.248;2023-05-20T08:01:35;102338.71;;;11.95;50.87
63306;BME280;50735;52.060;1.248;2023-05-20T08:04:07;102338.69;;;12.00;51.77
63306;BME280;50735;52.060;1.248;2023-05-20T08:06:39;102334.59;;;12.73;51.43
63306;BME280;50735;52.060;1.248;2023-05-20T08:09:11;102330.83;;;14.15;48.77
63306;BME280;50735;52.060;1.248;2023-05-20T08:11:43;102332.69;;;13.10;49.09
63306;BME280;50735;52.060;1.248;2023-05-20T08:14:14;102328.16;;;12.90;48.88
63306;BME280;50735;52.060;1.248;2023-05-20T08:16:46;102323.48;;;13.85;47.19
63306;BME280;50735;52.060;1.248;2023-05-20T08:19:18;102326.39;;;13.37;47.78
63306;BME280;50735;52.060;1.248;2023-05-20T08:21:50;102325.51;;;13.67;47.82
63306;BME280;50735;52.060;1.248;2023-05-20T08:24:22;102322.14;;;14.85;46.29
63306;BME280;50735;52.060;1.248;2023-05-20T08:26:54;102322.38;;;15.64;45.01
63306;BME280;50735;52.060;1.248;2023-05-20T08:29:26;102317.52;;;14.51;44.90
63306;BME280;50735;52.060;1.248;2023-05-20T08:31:58;102320.89;;;14.09;45.00
63306;BME280;50735;52.060;1.248;2023-05-20T08:34:30;102313.28;;;14.46;45.13
63306;BME280;50735;52.060;1.248;2023-05-20T08:37:02;102314.10;;;13.99;45.41
63306;BME280;50735;52.060;1.248;2023-05-20T08:39:33;102311.00;;;14.88;44.49
63306;BME280;50735;52.060;1.248;2023-05-20T08:42:05;102312.73;;;14.42;44.77
63306;BME280;50735;52.060;1.248;2023-05-20T08:44:37;102314.30;;;14.35;43.66
63306;BME280;50735;52.060;1.248;2023-05-20T08:47:09;102317.30;;;14.63;44.16
63306;BME280;50735;52.060;1.248;2023-05-20T08:49:41;102319.38;;;15.23;43.25
63306;BME280;50735;52.060;1.248;2023-05-20T08:52:13;102314.58;;;14.72;42.58
63306;BME280;50735;52.060;1.248;2023-05-20T08:54:48;102316.70;;;14.75;42.72
63306;BME280;50735;52.060;1.248;2023-05-20T08:57:20;102311.63;;;15.39;42.55
63306;BME280;50735;52.060;1.248;2023-05-20T08:59:53;102313.70;;;15.77;41.41
63306;BME280;50735;52.060;1.248;2023-05-20T09:02:24;102310.84;;;16.32;40.56
63306;BME280;50735;52.060;1.248;2023-05-20T09:04:56;102308.57;;;16.00;40.34
63306;BME280;50735;52.060;1.248;2023-05-20T09:07:28;102306.38;;;15.71;41.23
63306;BME280;50735;52.060;1.248;2023-05-20T09:10:00;102303.22;;;16.33;41.05
63306;BME280;50735;52.060;1.248;2023-05-20T09:12:31;102303.84;;;15.97;40.24
63306;BME280;50735;52.060;1.248;2023-05-20T09:15:04;102300.64;;;16.46;40.37
63306;BME280;50735;52.060;1.248;2023-05-20T09:17:37;102302.68;;;15.78;40.23
63306;BME280;50735;52.060;1.248;2023-05-20T09:20:10;102300.92;;;15.74;41.15
63306;BME280;50735;52.060;1.248;2023-05-20T09:22:42;102294.56;;;15.92;40.25
63306;BME280;50735;52.060;1.248;2023-05-20T09:25:17;102294.87;;;15.92;40.62
63306;BME280;50735;52.060;1.248;2023-05-20T09:27:49;102293.51;;;15.93;40.93
63306;BME280;50735;52.060;1.248;2023-05-20T09:30:21;102287.44;;;16.14;39.76
63306;BME280;50735;52.060;1.248;2023-05-20T09:32:54;102287.37;;;16.76;38.60
63306;BME280;50735;52.060;1.248;2023-05-20T09:35:27;102288.86;;;16.87;38.13
63306;BME280;50735;52.060;1.248;2023-05-20T09:37:59;102282.16;;;17.49;38.09
63306;BME280;50735;52.060;1.248;2023-05-20T09:40:31;102275.63;;;18.69;36.82
63306;BME280;50735;52.060;1.248;2023-05-20T09:43:04;102270.26;;;18.77;35.66
63306;BME280;50735;52.060;1.248;2023-05-20T09:45:36;102272.72;;;18.25;36.28
63306;BME280;50735;52.060;1.248;2023-05-20T09:48:08;102269.11;;;18.03;35.90
63306;BME280;50735;52.060;1.248;2023-05-20T09:50:41;102268.26;;;18.75;35.29
63306;BME280;50735;52.060;1.248;2023-05-20T09:53:14;102268.25;;;17.95;36.09
63306;BME280;50735;52.060;1.248;2023-05-20T09:55:47;102259.10;;;18.70;36.17
63306;BME280;50735;52.060;1.248;2023-05-20T09:58:21;102255.40;;;18.99;34.43
63306;BME280;50735;52.060;1.248;2023-05-20T10:00:53;102254.59;;;19.63;34.25
63306;BME280;50735;52.060;1.248;2023-05-20T10:03:25;102251.02;;;19.44;34.39
63306;BME280;50735;52.060;1.248;2023-05-20T10:06:10;102258.50;;;18.82;35.30
63306;BME280;50735;52.060;1.248;2023-05-20T10:08:57;102258.54;;;18.21;35.83
63306;BME280;50735;52.060;1.248;2023-05-20T10:11:36;102250.35;;;18.48;35.45
63306;BME280;50735;52.060;1.248;2023-05-20T10:14:23;102247.15;;;18.76;35.54
63306;BME280;50735;52.060;1.248;2023-05-20T10:17:02;102255.54;;;18.60;33.59
63306;BME280;50735;52.060;1.248;2023-05-20T10:19:36;102253.85;;;18.39;33.11
63306;BME280;50735;52.060;1.248;2023-05-20T10:22:10;102248.98;;;18.62;32.88
63306;BME280;50735;52.060;1.248;2023-05-20T10:24:43;102250.74;;;18.11;33.11
63306;BME280;50735;52.060;1.248;2023-05-20T10:27:17;102247.72;;;17.58;34.23
63306;BME280;50735;52.060;1.248;2023-05-20T10:29:50;102246.36;;;18.35;33.72
63306;BME280;50735;52.060;1.248;2023-05-20T10:32:23;102248.46;;;18.63;34.85
63306;BME280;50735;52.060;1.248;2023-05-20T10:34:59;102246.03;;;18.77;32.98
63306;BME280;50735;52.060;1.248;2023-05-20T10:37:32;102240.22;;;19.52;34.08
63306;BME280;50735;52.060;1.248;2023-05-20T10:40:06;102240.57;;;19.32;33.06
63306;BME280;50735;52.060;1.248;2023-05-20T10:42:39;102245.09;;;18.61;33.64
63306;BME280;50735;52.060;1.248;2023-05-20T10:45:11;102236.76;;;19.19;32.76
63306;BME280;50735;52.060;1.248;2023-05-20T10:47:53;102237.37;;;20.47;32.04
63306;BME280;50735;52.060;1.248;2023-05-20T10:50:26;102235.32;;;19.77;32.28
63306;BME280;50735;52.060;1.248;2023-05-20T10:53:03;102234.89;;;20.30;31.73
63306;BME280;50735;52.060;1.248;2023-05-20T10:55:35;102231.61;;;20.29;31.77
63306;BME280;50735;52.060;1.248;2023-05-20T10:58:08;102232.72;;;19.19;32.64
63306;BME280;50735;52.060;1.248;2023-05-20T11:00:42;102229.60;;;19.71;31.69
63306;BME280;50735;52.060;1.248;2023-05-20T11:03:15;102229.32;;;19.41;30.41
63306;BME280;50735;52.060;1.248;2023-05-20T11:05:47;102233.64;;;18.80;32.31
63306;BME280;50735;52.060;1.248;2023-05-20T11:08:20;102222.91;;;18.75;31.76
63306;BME280;50735;52.060;1.248;2023-05-20T11:10:51;102225.22;;;19.22;32.78
63306;BME280;50735;52.060;1.248;2023-05-20T11:13:24;102226.27;;;18.60;32.98
63306;BME280;50735;52.060;1.248;2023-05-20T11:15:56;102221.60;;;18.88;32.37
63306;BME280;50735;52.060;1.248;2023-05-20T11:18:28;102218.59;;;18.86;31.49
63306;BME280;50735;52.060;1.248;2023-05-20T11:21:01;102225.77;;;19.57;31.10
63306;BME280;50735;52.060;1.248;2023-05-20T11:23:32;102221.56;;;19.23;30.20
63306;BME280;50735;52.060;1.248;2023-05-20T11:26:04;102221.62;;;19.56;29.64
63306;BME280;50735;52.060;1.248;2023-05-20T11:28:36;102217.89;;;20.33;30.57
63306;BME280;50735;52.060;1.248;2023-05-20T11:31:09;102218.62;;;20.37;29.31
63306;BME280;50735;52.060;1.248;2023-05-20T11:33:41;102210.21;;;20.62;29.13
63306;BME280;50735;52.060;1.248;2023-05-20T11:36:13;102208.12;;;19.73;29.04
63306;BME280;50735;52.060;1.248;2023-05-20T11:38:45;102206.39;;;19.38;28.39
63306;BME280;50735;52.060;1.248;2023-05-20T11:41:22;102199.63;;;18.97;28.73
63306;BME280;50735;52.060;1.248;2023-05-20T11:43:56;102200.00;;;19.32;29.10
63306;BME280;50735;52.060;1.248;2023-05-20T11:46:28;102195.85;;;19.06;29.19
63306;BME280;50735;52.060;1.248;2023-05-20T11:49:00;102193.47;;;18.90;30.11
63306;BME280;50735;52.060;1.248;2023-05-20T11:51:31;102198.46;;;19.84;29.56
63306;BME280;50735;52.060;1.248;2023-05-20T11:54:04;102191.22;;;19.28;29.60
63306;BME280;50735;52.060;1.248;2023-05-20T11:56:37;102189.20;;;19.72;28.83
63306;BME280;50735;52.060;1.248;2023-05-20T11:59:10;102193.98;;;20.04;28.26
63306;BME280;50735;52.060;1.248;2023-05-20T12:01:41;102193.44;;;19.90;28.16
63306;BME280;50735;52.060;1.248;2023-05-20T12:04:13;102184.06;;;19.38;28.34
63306;BME280;50735;52.060;1.248;2023-05-20T12:06:45;102186.71;;;19.99;28.23
63306;BME280;50735;52.060;1.248;2023-05-20T12:09:17;102184.03;;;19.07;28.64
63306;BME280;50735;52.060;1.248;2023-05-20T12:11:49;102178.67;;;19.39;28.86
63306;BME280;50735;52.060;1.248;2023-05-20T12:14:21;102176.96;;;19.61;28.78
63306;BME280;50735;52.060;1.248;2023-05-20T12:16:53;102174.79;;;19.96;29.67
63306;BME280;50735;52.060;1.248;2023-05-20T12:19:24;102174.06;;;19.29;31.04
63306;BME280;50735;52.060;1.248;2023-05-20T12:21:56;102170.27;;;19.47;29.43
63306;BME280;50735;52.060;1.248;2023-05-20T12:24:28;102169.02;;;20.11;30.08
63306;BME280;50735;52.060;1.248;2023-05-20T12:27:00;102160.76;;;20.46;29.50
63306;BME280;50735;52.060;1.248;2023-05-20T12:29:31;102162.17;;;20.06;30.68
63306;BME280;50735;52.060;1.248;2023-05-20T12:32:04;102156.91;;;20.81;29.55
63306;BME280;50735;52.060;1.248;2023-05-20T12:34:36;102158.68;;;20.41;30.02
63306;BME280;50735;52.060;1.248;2023-05-20T12:37:07;102166.98;;;20.20;30.42
63306;BME280;50735;52.060;1.248;2023-05-20T12:39:39;102154.65;;;21.12;30.09
63306;BME280;50735;52.060;1.248;2023-05-20T12:42:11;102162.37;;;20.35;30.03
63306;BME280;50735;52.060;1.248;2023-05-20T12:44:42;102162.31;;;20.69;29.03
63306;BME280;50735;52.060;1.248;2023-05-20T12:47:14;102162.09;;;20.62;29.07
63306;BME280;50735;52.060;1.248;2023-05-20T12:49:46;102172.48;;;19.35;29.15
63306;BME280;50735;52.060;1.248;2023-05-20T12:52:17;102165.34;;;19.29;29.48
63306;BME280;50735;52.060;1.248;2023-05-20T12:54:49;102168.88;;;19.48;29.57
63306;BME280;50735;52.060;1.248;2023-05-20T12:57:22;102159.31;;;18.71;29.57
63306;BME280;50735;52.060;1.248;2023-05-20T12:59:54;102164.61;;;19.42;29.76
63306;BME280;50735;52.060;1.248;2023-05-20T13:02:26;102164.21;;;19.84;29.79
63306;BME280;50735;52.060;1.248;2023-05-20T13:04:57;102165.64;;;20.10;29.38
63306;BME280;50735;52.060;1.248;2023-05-20T13:07:29;102167.51;;;19.48;29.64
63306;BME280;50735;52.060;1.248;2023-05-20T13:10:01;102160.26;;;19.36;30.20
63306;BME280;50735;52.060;1.248;2023-05-20T13:12:33;102158.11;;;20.67;29.21
63306;BME280;50735;52.060;1.248;2023-05-20T13:15:06;102157.12;;;21.17;29.44
63306;BME280;50735;52.060;1.248;2023-05-20T13:17:38;102162.18;;;20.24;29.83
63306;BME280;50735;52.060;1.248;2023-05-20T13:20:11;102153.23;;;20.03;31.18